A06 weather

Kulin Airport
Western Australia, Australia

Public forecast

Using degrees Celsius for public forecast. Weather courtesy of forecast.io.

Closest aviation weather report (METAR) to Kulin Airport

Closest report is Perth International Airport, 120.1 nm (222.4 km) WNW. Retrieved 2019/10/20 22:30 UTC (9 minutes ago):

YPPH 202230Z 09005KT 9999 BKN021 13/12 Q1019 NOSIG

Closest aviation forecast (TAF) to Kulin Airport

Closest forecast is Perth International Airport, 120.1 nm (222.4 km) WNW. Retrieved 2019/10/20 18:00 UTC (5 hours ago):

TAF YPPH 201706Z 2018/2124 21005KT 9999 BKN020 BECMG 2101/2103 25012KT 9999 SCT040 FM211000 21010KT CAVOK FM211700 18005KT CAVOK